Time;durP1;ratioP1;P1;durP2;ratioP2;P2;SDS_P1;SDS_P2;PMS_P1;PMS_P2;Temp;Humidity;BMP_temperature;BMP_pressure;BME280_temperature;BME280_humidity;BME280_pressure;Samples;Min_cycle;Max_cycle;Signal;HPM_P1;HPM_P2
2022/05/21 00:01:06;;;;;;;6.95;2.30;;;;;;;19.04;72.92;100226.78;4977315;28;20034;-77
2022/05/21 00:03:31;;;;;;;4.22;2.70;;;;;;;19.07;73.48;100237.31;4975525;28;20030;-77
2022/05/21 00:05:57;;;;;;;7.28;2.33;;;;;;;19.03;73.75;100257.16;4994552;28;20045;-77
2022/05/21 00:08:23;;;;;;;5.00;2.28;;;;;;;19.01;73.97;100246.50;4977125;28;20145;-77
2022/05/21 00:10:48;;;;;;;5.00;2.53;;;;;;;18.95;75.03;100245.94;4994699;28;20030;-77
2022/05/21 00:13:13;;;;;;;7.82;2.42;;;;;;;18.94;73.84;100258.44;4994252;28;20041;-77
2022/05/21 00:15:39;;;;;;;6.20;3.10;;;;;;;18.90;73.34;100278.22;4994413;28;20108;-77
2022/05/21 00:18:05;;;;;;;6.47;3.40;;;;;;;18.90;74.02;100280.88;4994599;28;20038;-77
2022/05/21 00:20:50;;;;;;;8.93;2.78;;;;;;;18.73;70.67;100289.63;4994506;28;20041;-76
2022/05/21 00:23:29;;;;;;;5.35;2.58;;;;;;;18.44;70.21;100300.69;4991327;28;20042;-77
2022/05/21 00:26:03;;;;;;;4.32;2.17;;;;;;;18.26;70.49;100295.22;4993913;28;20437;-77
2022/05/21 00:28:29;;;;;;;7.38;2.47;;;;;;;18.21;70.49;100329.25;4987602;28;20049;-77
2022/05/21 00:30:56;;;;;;;8.75;2.28;;;;;;;18.03;70.93;100344.22;4993018;28;20084;-77
2022/05/21 00:33:22;;;;;;;3.47;1.63;;;;;;;18.02;70.78;100314.88;4992299;28;20460;-77
2022/05/21 00:35:48;;;;;;;5.10;1.95;;;;;;;17.98;70.99;100323.97;4993973;28;20038;-77
2022/05/21 00:38:14;;;;;;;5.75;1.90;;;;;;;17.87;71.17;100332.41;4972709;28;20123;-77
2022/05/21 00:40:40;;;;;;;4.00;2.00;;;;;;;17.83;72.03;100336.13;4976044;28;20057;-76
2022/05/21 00:43:06;;;;;;;3.13;1.80;;;;;;;17.86;71.35;100336.00;4993721;28;20042;-77
2022/05/21 00:45:31;;;;;;;4.95;2.25;;;;;;;17.80;71.20;100363.78;4993921;28;20126;-77
2022/05/21 00:47:57;;;;;;;4.55;1.95;;;;;;;17.74;71.18;100356.88;4976313;28;20049;-77
2022/05/21 00:50:27;;;;;;;4.85;2.03;;;;;;;17.68;70.88;100356.22;4993824;28;20030;-77
2022/05/21 00:52:53;;;;;;;4.50;1.92;;;;;;;17.61;71.30;100368.94;4993512;28;20420;-77
2022/05/21 00:55:27;;;;;;;5.90;2.08;;;;;;;17.63;71.26;100382.22;4989728;28;20416;-77
2022/05/21 01:00:45;;;;;;;2.65;1.50;;;;;;;17.57;70.73;100403.81;4975704;28;20038;-77
2022/05/21 01:03:12;;;;;;;7.93;1.40;;;;;;;17.56;69.22;100394.94;4993378;28;20121;-76
2022/05/21 01:05:38;;;;;;;3.55;1.27;;;;;;;17.51;69.52;100387.09;4993318;28;20030;-77
2022/05/21 01:08:04;;;;;;;1.95;1.15;;;;;;;17.38;65.97;100532.53;4993487;28;20109;-77
2022/05/21 01:10:37;;;;;;;3.53;1.10;;;;;;;17.33;66.20;100394.91;4993383;28;20084;-77
2022/05/21 01:13:07;;;;;;;12.27;1.50;;;;;;;17.26;66.14;100424.44;4989500;28;20125;-76
2022/05/21 01:15:36;;;;;;;6.40;0.85;;;;;;;17.13;65.01;100420.47;4993549;28;20045;-77
2022/05/21 01:18:05;;;;;;;2.78;0.82;;;;;;;17.09;64.68;100433.03;4993207;28;20034;-77
2022/05/21 01:20:54;;;;;;;7.47;1.05;;;;;;;17.00;64.77;100445.81;4975853;28;20038;-77
2022/05/21 01:23:20;;;;;;;3.85;0.80;;;;;;;16.98;63.82;100455.69;4975489;28;20050;-77
2022/05/21 01:25:47;;;;;;;3.33;0.93;;;;;;;16.97;63.54;100441.44;4988753;28;20176;-76
2022/05/21 01:28:15;;;;;;;4.70;0.90;;;;;;;16.95;63.44;100434.44;4956882;28;20490;-77
2022/05/21 01:30:46;;;;;;;2.50;0.70;;;;;;;16.94;63.41;100449.56;4993218;28;20033;-77
2022/05/21 01:33:14;;;;;;;2.15;0.90;;;;;;;16.79;62.96;100442.06;4992567;28;20045;-77
2022/05/21 01:35:41;;;;;;;3.13;0.88;;;;;;;16.88;62.98;100452.44;4975377;28;20046;-77
2022/05/21 01:38:08;;;;;;;1.20;0.40;;;;;;;16.76;63.14;100463.47;4993135;28;20042;-77
2022/05/21 01:40:34;;;;;;;4.32;0.77;;;;;;;16.65;62.59;100482.47;4992794;28;20034;-77
2022/05/21 01:45:45;;;;;;;2.00;0.40;;;;;;;16.38;62.90;100477.09;4972938;28;20030;-77
2022/05/21 01:48:11;;;;;;;2.97;0.65;;;;;;;16.28;63.18;100496.06;4992555;28;20034;-76
2022/05/21 01:50:38;;;;;;;4.57;0.70;;;;;;;16.22;62.22;100478.50;4992427;28;20048;-77
2022/05/21 01:53:04;;;;;;;0.90;0.40;;;;;;;16.17;62.24;100507.03;4992414;28;20060;-77
2022/05/21 01:55:30;;;;;;;2.85;0.68;;;;;;;16.08;62.28;100513.50;4973616;28;20047;-77
2022/05/21 01:57:56;;;;;;;3.13;0.60;;;;;;;16.01;62.50;100517.28;4988648;28;20052;-77
2022/05/21 02:00:21;;;;;;;2.90;0.75;;;;;;;15.94;62.31;100513.91;4992454;28;20122;-77
2022/05/21 02:02:47;;;;;;;2.20;0.60;;;;;;;15.88;62.92;100510.56;4992056;28;20041;-77
2022/05/21 02:05:12;;;;;;;3.72;0.88;;;;;;;15.80;62.87;100508.09;4991694;28;20034;-76
2022/05/21 02:07:38;;;;;;;3.58;0.60;;;;;;;15.74;63.03;100519.75;4992236;28;20045;-76
2022/05/21 02:10:05;;;;;;;1.58;0.65;;;;;;;15.72;62.78;100540.25;4992249;28;20084;-77
2022/05/21 02:12:30;;;;;;;3.70;1.27;;;;;;;15.70;62.97;100523.44;4991772;28;20042;-76
2022/05/21 02:14:56;;;;;;;2.78;0.80;;;;;;;15.66;62.65;100529.72;4974447;28;20452;-76
2022/05/21 02:17:22;;;;;;;2.40;0.90;;;;;;;15.68;63.18;100530.56;4992148;28;20038;-76
2022/05/21 02:19:48;;;;;;;2.63;0.90;;;;;;;15.58;62.86;100529.06;4990805;28;20037;-76
2022/05/21 02:22:14;;;;;;;4.82;1.10;;;;;;;15.65;62.61;100553.72;4992030;28;20485;-77
2022/05/21 02:24:39;;;;;;;3.00;1.00;;;;;;;15.57;63.25;100549.47;4988223;28;20045;-76
2022/05/21 02:27:11;;;;;;;2.53;1.10;;;;;;;15.57;63.22;100553.91;4974741;28;20041;-77
2022/05/21 02:29:37;;;;;;;2.20;1.13;;;;;;;15.54;63.52;100569.97;4970918;28;20038;-77
2022/05/21 02:32:02;;;;;;;2.28;1.00;;;;;;;15.50;63.57;100568.28;4991541;28;20092;-77
2022/05/21 02:34:28;;;;;;;2.45;1.00;;;;;;;15.39;64.27;100546.41;4991896;28;20113;-77
2022/05/21 02:39:37;;;;;;;3.40;1.10;;;;;;;15.32;64.89;100564.31;4988663;28;20125;-77
2022/05/21 02:42:03;;;;;;;3.28;1.40;;;;;;;15.31;65.15;100565.22;4991683;28;20165;-77
2022/05/21 02:44:30;;;;;;;2.28;1.13;;;;;;;15.31;64.78;100576.72;4991694;28;20034;-77
2022/05/21 02:46:55;;;;;;;3.75;1.60;;;;;;;15.44;64.87;100573.78;4991851;28;20046;-77
2022/05/21 02:49:22;;;;;;;4.60;1.23;;;;;;;15.52;64.60;100580.63;4991840;28;20026;-77
2022/05/21 02:51:47;;;;;;;3.40;0.95;;;;;;;15.53;64.24;100592.13;4992352;28;20050;-77
2022/05/21 02:54:18;;;;;;;3.60;1.45;;;;;;;15.63;64.25;100612.28;4997629;28;20037;-77
2022/05/21 02:56:49;;;;;;;2.88;1.27;;;;;;;15.59;64.62;100578.69;4994451;28;20042;-76
2022/05/21 02:59:15;;;;;;;4.13;1.75;;;;;;;15.64;64.52;100590.09;4998127;28;20476;-76
2022/05/21 03:01:40;;;;;;;5.53;1.60;;;;;;;15.61;64.77;100591.94;4994307;28;20042;-76
2022/05/21 03:04:07;;;;;;;5.38;2.08;;;;;;;15.60;64.61;100590.22;4998175;28;20053;-77
2022/05/21 03:06:34;;;;;;;4.40;1.45;;;;;;;15.52;65.31;100599.25;4998196;28;20417;-77
2022/05/21 03:11:43;;;;;;;3.20;2.05;;;;;;;15.57;65.28;100586.72;4995435;28;20093;-77
2022/05/21 03:14:08;;;;;;;4.57;2.10;;;;;;;15.58;65.53;100598.22;4997872;28;20564;-77
2022/05/21 03:16:33;;;;;;;3.45;1.75;;;;;;;15.67;65.75;100598.00;4998140;28;20104;-77
2022/05/21 03:18:59;;;;;;;3.80;2.00;;;;;;;15.64;66.08;100592.75;4998029;28;20074;-77
2022/05/21 03:21:24;;;;;;;9.25;2.53;;;;;;;15.58;65.85;100606.19;4997799;28;20046;-77
2022/05/21 03:23:49;;;;;;;3.88;1.80;;;;;;;15.62;65.78;100605.22;4997013;28;20057;-77
2022/05/21 03:26:15;;;;;;;5.05;2.58;;;;;;;15.56;65.85;100626.63;4991142;28;20043;-77
2022/05/21 03:28:40;;;;;;;5.28;2.20;;;;;;;15.56;66.32;100616.91;4960094;28;20073;-76
2022/05/21 03:31:05;;;;;;;3.35;2.20;;;;;;;15.55;66.02;100611.59;4979925;28;20654;-77
2022/05/21 03:33:30;;;;;;;4.57;2.08;;;;;;;15.60;66.55;100617.69;4997962;28;20042;-77
2022/05/21 03:35:56;;;;;;;3.78;2.15;;;;;;;15.64;66.13;100629.09;4998081;28;20050;-77
2022/05/21 03:38:21;;;;;;;5.30;2.53;;;;;;;15.58;66.82;100635.47;4997668;28;20043;-76
2022/05/21 03:40:47;;;;;;;3.58;1.90;;;;;;;15.63;66.82;100641.53;4998077;28;20102;-76
2022/05/21 03:43:13;;;;;;;3.95;2.28;;;;;;;15.64;67.02;100645.06;4979801;28;20619;-76
2022/05/21 03:45:39;;;;;;;3.83;2.20;;;;;;;15.60;67.37;100644.28;4997417;28;20034;-76
2022/05/21 03:48:06;;;;;;;4.55;2.30;;;;;;;15.61;67.13;100659.31;4983555;28;20515;-76
2022/05/21 03:50:32;;;;;;;4.68;2.50;;;;;;;15.54;67.41;100649.78;4997751;28;20046;-76
2022/05/21 03:52:58;;;;;;;3.78;2.20;;;;;;;15.56;67.06;100661.22;4993883;28;20046;-77
2022/05/21 03:55:23;;;;;;;4.15;2.63;;;;;;;15.60;67.15;100662.03;4979264;28;20035;-77
2022/05/21 03:57:49;;;;;;;7.22;2.28;;;;;;;15.62;67.33;100661.09;4996123;28;20543;-76
2022/05/21 04:00:17;;;;;;;3.40;2.00;;;;;;;15.59;67.35;100679.78;4996393;28;20039;-76
2022/05/21 04:02:42;;;;;;;3.42;2.00;;;;;;;15.55;67.85;100675.44;4979684;28;20412;-76
2022/05/21 04:05:09;;;;;;;5.30;1.83;;;;;;;15.54;67.30;100676.38;4993497;28;20034;-76
2022/05/21 04:07:35;;;;;;;4.60;1.33;;;;;;;15.46;67.16;100700.50;4994383;28;20092;-76
2022/05/21 04:10:00;;;;;;;3.08;1.40;;;;;;;15.42;65.71;100703.25;4980862;28;20098;-76
2022/05/21 04:12:26;;;;;;;3.35;1.15;;;;;;;15.38;65.13;100706.88;4992297;28;20125;-76
2022/05/21 04:14:51;;;;;;;3.28;0.82;;;;;;;15.43;64.50;100715.63;4990044;28;20046;-76
2022/05/21 04:17:16;;;;;;;8.63;1.00;;;;;;;15.35;64.56;100699.84;4992709;28;20030;-76
2022/05/21 04:19:43;;;;;;;3.47;1.30;;;;;;;15.23;64.60;100702.81;4992773;28;20093;-76
2022/05/21 04:22:09;;;;;;;2.38;0.90;;;;;;;15.26;63.68;100722.22;4994051;28;20041;-76
2022/05/21 04:24:35;;;;;;;2.33;0.90;;;;;;;15.13;63.26;100729.56;4960821;28;20033;-77
2022/05/21 04:27:01;;;;;;;3.53;1.17;;;;;;;15.00;64.14;100717.47;4994164;28;20429;-77
2022/05/21 04:29:26;;;;;;;3.35;1.10;;;;;;;14.94;64.32;100722.91;4994119;28;20189;-76
2022/05/21 04:31:52;;;;;;;4.72;0.85;;;;;;;14.89;65.03;100709.72;4976560;28;20070;-77
2022/05/21 04:34:17;;;;;;;3.70;0.95;;;;;;;14.93;65.06;100721.16;4993856;28;20053;-76
2022/05/21 04:36:43;;;;;;;2.03;0.60;;;;;;;14.87;66.15;100746.06;4990754;28;20046;-75
2022/05/21 04:39:09;;;;;;;3.95;0.90;;;;;;;14.92;65.63;100735.34;4972712;28;20445;-78
2022/05/21 04:41:34;;;;;;;3.78;1.00;;;;;;;14.88;66.03;100723.94;4976261;28;20100;-76
2022/05/21 04:44:00;;;;;;;3.35;1.45;;;;;;;14.84;66.73;100716.91;4993354;28;20044;-76
2022/05/21 04:46:25;;;;;;;3.67;0.93;;;;;;;14.94;67.19;100714.06;4994246;28;20054;-76
2022/05/21 04:48:51;;;;;;;1.98;0.80;;;;;;;14.96;67.94;100736.16;4976306;28;20552;-77
2022/05/21 04:51:17;;;;;;;1.85;0.95;;;;;;;14.92;68.17;100738.00;4972479;28;20038;-76
2022/05/21 04:53:43;;;;;;;3.55;0.98;;;;;;;14.97;68.34;100735.28;4994220;28;20030;-77
2022/05/21 04:56:08;;;;;;;2.85;0.90;;;;;;;14.97;68.75;100737.94;4990767;28;20085;-76
2022/05/21 04:58:34;;;;;;;2.67;1.13;;;;;;;15.00;69.12;100738.72;4991821;28;20134;-76
2022/05/21 05:01:01;;;;;;;2.88;1.10;;;;;;;15.01;66.94;100758.19;4991347;28;20030;-76
2022/05/21 05:03:26;;;;;;;2.53;1.13;;;;;;;14.96;66.38;100736.16;4991337;28;20081;-76
2022/05/21 05:05:52;;;;;;;2.80;1.55;;;;;;;14.93;66.95;100760.16;4971304;28;20074;-77
2022/05/21 05:08:19;;;;;;;3.03;1.35;;;;;;;14.99;66.56;100741.44;4991576;28;20057;-77
2022/05/21 05:10:46;;;;;;;1.77;1.02;;;;;;;15.00;65.26;100753.81;4991481;28;20053;-76
2022/05/21 05:13:12;;;;;;;4.70;1.42;;;;;;;14.95;64.42;100755.69;4991361;28;20451;-76
2022/05/21 05:15:38;;;;;;;2.60;1.38;;;;;;;14.90;64.39;100769.91;4992284;28;20046;-77
2022/05/21 05:18:10;;;;;;;2.45;1.30;;;;;;;14.85;64.31;100760.28;4975767;28;20030;-76
2022/05/21 05:20:37;;;;;;;2.78;1.33;;;;;;;14.85;64.44;100766.47;4993267;28;20081;-76
2022/05/21 05:23:04;;;;;;;3.47;1.40;;;;;;;14.97;63.65;100794.59;4993049;28;20045;-76
2022/05/21 05:25:29;;;;;;;3.25;1.52;;;;;;;14.87;62.78;100780.63;4989176;28;20070;-76
2022/05/21 05:27:54;;;;;;;3.80;1.40;;;;;;;14.82;62.65;100781.63;4993001;28;20073;-76
2022/05/21 05:30:21;;;;;;;2.72;1.40;;;;;;;14.74;62.34;100784.44;4991034;28;20038;-77
2022/05/21 05:32:47;;;;;;;3.22;1.40;;;;;;;14.63;62.17;100805.00;4973265;28;20493;-76
2022/05/21 05:35:12;;;;;;;4.85;1.63;;;;;;;14.55;63.33;100793.66;4990412;28;20038;-77
2022/05/21 05:37:39;;;;;;;2.75;1.20;;;;;;;14.67;63.09;100793.41;4972800;28;20096;-76
2022/05/21 05:40:10;;;;;;;2.90;1.13;;;;;;;14.78;63.19;100799.41;4987970;28;20034;-77
2022/05/21 05:42:36;;;;;;;3.88;1.00;;;;;;;14.86;62.21;100804.59;4988733;28;20045;-77
2022/05/21 05:45:05;;;;;;;4.32;1.40;;;;;;;14.89;61.09;100808.03;4990617;28;20052;-76
2022/05/21 05:47:31;;;;;;;4.35;1.50;;;;;;;14.95;61.21;100814.16;4971741;28;20134;-77
2022/05/21 05:49:57;;;;;;;6.80;1.10;;;;;;;15.10;61.03;100819.16;4988217;28;20563;-76
2022/05/21 05:52:22;;;;;;;3.28;1.33;;;;;;;15.11;60.30;100815.59;4970533;28;20116;-77
2022/05/21 05:54:48;;;;;;;2.47;1.13;;;;;;;15.01;60.14;100841.50;4990278;28;20493;-76
2022/05/21 05:57:13;;;;;;;3.80;1.20;;;;;;;14.93;60.95;100843.41;4992815;28;20515;-77
2022/05/21 05:59:51;;;;;;;2.75;1.00;;;;;;;14.87;61.21;100833.75;4975566;28;20034;-76
2022/05/21 06:05:05;;;;;;;2.88;1.27;;;;;;;14.56;61.30;100843.19;4996264;28;20077;-76
2022/05/21 06:07:31;;;;;;;2.53;1.20;;;;;;;14.65;61.47;100854.56;4992467;28;20045;-76
2022/05/21 06:10:02;;;;;;;2.60;1.30;;;;;;;14.69;60.64;100834.97;4973340;28;20047;-77
2022/05/21 06:12:28;;;;;;;4.03;1.20;;;;;;;14.81;61.21;100835.69;4992251;28;20133;-77
2022/05/21 06:14:53;;;;;;;1.63;0.88;;;;;;;15.05;60.52;100837.00;4992516;28;20073;-77
2022/05/21 06:17:19;;;;;;;4.78;1.63;;;;;;;15.04;59.92;100844.09;4972157;28;20034;-77
2022/05/21 06:19:44;;;;;;;4.60;1.60;;;;;;;15.12;60.04;100849.25;4991948;28;20038;-77
2022/05/21 06:22:10;;;;;;;4.68;1.45;;;;;;;15.02;59.60;100876.91;4988616;28;20042;-77
2022/05/21 06:24:36;;;;;;;3.58;1.20;;;;;;;14.94;59.52;100839.00;4972532;28;20125;-77
2022/05/21 06:27:05;;;;;;;5.22;1.40;;;;;;;14.89;60.33;100839.06;4976304;28;20038;-77
2022/05/21 06:29:31;;;;;;;3.80;1.27;;;;;;;14.93;58.96;100854.03;4992105;28;20132;-77
2022/05/21 06:31:57;;;;;;;4.72;1.15;;;;;;;14.97;58.83;100844.22;4991905;28;20553;-77
2022/05/21 06:34:23;;;;;;;2.40;1.10;;;;;;;15.14;57.38;100842.09;4991985;28;20084;-77
2022/05/21 06:36:48;;;;;;;3.55;1.10;;;;;;;15.13;57.76;100835.03;4992102;28;20101;-77
2022/05/21 06:39:14;;;;;;;4.15;1.50;;;;;;;15.28;57.33;100832.09;4973719;28;20043;-77
2022/05/21 06:41:39;;;;;;;4.25;1.20;;;;;;;15.30;56.41;100843.56;4991193;28;20038;-77
2022/05/21 06:44:05;;;;;;;1.55;0.77;;;;;;;15.22;55.22;100855.25;4974568;28;20034;-77
2022/05/21 06:46:30;;;;;;;3.30;0.85;;;;;;;14.95;54.89;100862.00;4992215;28;20037;-77
2022/05/21 06:48:55;;;;;;;5.53;1.20;;;;;;;14.94;55.22;100854.94;4991881;28;20747;-77
2022/05/21 06:51:21;;;;;;;3.78;1.30;;;;;;;15.01;55.54;100852.13;4989800;28;20448;-77
2022/05/21 06:53:46;;;;;;;2.45;1.23;;;;;;;15.11;55.31;100853.66;4987639;28;20489;-77
2022/05/21 06:56:14;;;;;;;3.78;1.27;;;;;;;15.25;54.61;100840.13;4988663;28;20563;-77
2022/05/21 06:58:41;;;;;;;8.88;1.63;;;;;;;15.40;54.11;100846.03;4988629;28;20038;-77
2022/05/21 07:01:06;;;;;;;2.85;1.10;;;;;;;15.50;55.10;100837.81;4989542;28;20041;-77
2022/05/21 07:03:32;;;;;;;5.85;1.25;;;;;;;15.64;54.00;100857.91;4972239;28;20043;-77
2022/05/21 07:08:42;;;;;;;4.05;1.40;;;;;;;15.50;54.38;100840.47;4970165;28;20038;-77
2022/05/21 07:11:08;;;;;;;6.90;1.40;;;;;;;15.61;54.98;100861.50;4988627;28;20034;-77
2022/05/21 07:13:34;;;;;;;4.63;1.15;;;;;;;15.57;54.33;100862.50;4973250;28;20042;-77
2022/05/21 07:15:59;;;;;;;3.75;1.00;;;;;;;15.59;54.02;100849.16;4990422;28;20057;-77
2022/05/21 07:18:27;;;;;;;3.70;1.48;;;;;;;15.69;53.12;100864.94;4974400;28;20054;-77
2022/05/21 07:20:53;;;;;;;3.85;1.38;;;;;;;15.73;53.80;100852.44;4988037;28;20069;-78
2022/05/21 07:23:19;;;;;;;4.47;1.40;;;;;;;15.93;52.32;100841.34;4989864;28;20038;-78
2022/05/21 07:25:45;;;;;;;6.15;1.10;;;;;;;15.99;53.07;100846.53;4991602;28;20032;-78
2022/05/21 07:28:10;;;;;;;6.38;1.42;;;;;;;15.93;52.54;100838.69;4991901;28;20038;-77
2022/05/21 07:30:37;;;;;;;5.90;1.05;;;;;;;16.07;52.29;100849.88;4992118;28;20038;-78
2022/05/21 07:33:02;;;;;;;3.38;1.20;;;;;;;16.11;52.91;100846.25;4991391;28;20034;-78
2022/05/21 07:35:29;;;;;;;5.03;1.17;;;;;;;16.12;52.49;100855.97;4991648;28;20178;-78
2022/05/21 07:37:55;;;;;;;4.70;0.98;;;;;;;16.09;51.85;100857.84;4990653;28;20030;-78
2022/05/21 07:40:24;;;;;;;3.67;1.00;;;;;;;16.22;52.66;100840.66;4995290;28;20037;-78
2022/05/21 07:42:50;;;;;;;6.70;1.27;;;;;;;16.30;51.65;100854.66;4995207;28;20046;-77
2022/05/21 07:45:18;;;;;;;3.28;1.02;;;;;;;16.38;53.25;100841.16;4977660;28;20125;-78
2022/05/21 07:47:43;;;;;;;5.07;1.00;;;;;;;16.50;52.21;100834.59;4978074;28;20505;-77
2022/05/21 07:50:09;;;;;;;4.13;1.17;;;;;;;16.71;50.92;100843.84;4995570;28;20066;-78
2022/05/21 07:52:35;;;;;;;3.10;0.93;;;;;;;16.85;50.76;100825.72;4977029;28;20034;-77
2022/05/21 07:55:00;;;;;;;3.67;1.13;;;;;;;16.69;50.88;100830.56;4993955;28;20045;-78
2022/05/21 07:57:26;;;;;;;5.45;0.95;;;;;;;16.61;51.60;100843.19;4992814;28;20034;-78
2022/05/21 07:59:52;;;;;;;4.85;1.02;;;;;;;16.89;50.26;100846.03;4993170;28;20038;-78
2022/05/21 08:02:18;;;;;;;3.78;1.10;;;;;;;16.93;49.50;100846.84;4975430;28;20090;-78
2022/05/21 08:04:46;;;;;;;3.58;1.00;;;;;;;17.39;47.86;100842.84;4992087;28;20034;-78
2022/05/21 08:07:11;;;;;;;3.90;1.00;;;;;;;17.74;49.46;100849.81;4993147;28;20033;-77
2022/05/21 08:09:37;;;;;;;4.88;1.63;;;;;;;17.54;48.54;100837.06;4994744;28;20042;-78
2022/05/21 08:12:04;;;;;;;4.60;0.95;;;;;;;17.53;49.40;100844.22;4994664;28;20038;-78
2022/05/21 08:14:29;;;;;;;5.72;1.20;;;;;;;17.50;49.12;100846.06;4991134;28;20069;-78
2022/05/21 08:16:55;;;;;;;2.92;0.93;;;;;;;17.28;47.52;100845.84;4994708;28;20128;-77
2022/05/21 08:19:20;;;;;;;1.67;0.70;;;;;;;17.60;47.62;100852.88;4994732;28;20081;-78
2022/05/21 08:21:46;;;;;;;2.67;0.63;;;;;;;18.02;47.30;100839.16;4993731;28;20548;-78
2022/05/21 08:26:58;;;;;;;3.58;0.80;;;;;;;17.60;49.12;100841.34;4994267;28;20038;-77
2022/05/21 08:29:35;;;;;;;2.60;0.80;;;;;;;17.56;48.99;100855.72;4994371;28;20128;-78
2022/05/21 08:32:03;;;;;;;3.50;1.33;;;;;;;17.78;49.52;100835.44;4990215;28;20050;-78
2022/05/21 08:34:29;;;;;;;2.28;0.93;;;;;;;18.26;48.19;100837.50;4994450;28;20045;-78
2022/05/21 08:36:55;;;;;;;2.33;0.90;;;;;;;18.26;48.07;100837.50;4978143;28;20040;-77
2022/05/21 08:39:21;;;;;;;3.55;1.35;;;;;;;18.27;48.85;100831.22;4990512;28;20062;-77
2022/05/21 08:42:09;;;;;;;4.15;0.95;;;;;;;18.60;48.48;100828.31;4994003;28;20489;-77
2022/05/21 08:44:47;;;;;;;4.65;0.90;;;;;;;18.78;46.73;100857.13;4990983;28;20061;-77
2022/05/21 08:47:29;;;;;;;3.83;1.02;;;;;;;18.69;46.81;100836.03;4994606;28;20441;-78
2022/05/21 08:49:59;;;;;;;;;;;;;;;18.19;49.41;100819.94;4974193;28;20053;-78
2022/05/21 08:52:46;;;;;;;4.47;1.13;;;;;;;18.43;48.22;100826.25;4991573;28;20009;-79
2022/05/21 08:55:17;;;;;;;5.72;1.15;;;;;;;18.68;46.88;100825.38;4974805;28;20031;-78
2022/05/21 08:57:56;;;;;;;3.55;0.95;;;;;;;18.94;46.60;100811.13;4995041;28;20048;-78
2022/05/21 09:00:30;;;;;;;3.25;1.10;;;;;;;18.99;47.31;100812.72;4994130;28;20042;-78
2022/05/21 09:02:56;;;;;;;3.70;1.30;;;;;;;19.04;46.26;100824.09;4973063;28;20457;-78
2022/05/21 09:05:23;;;;;;;2.75;1.00;;;;;;;19.03;45.49;100821.50;4991469;28;20030;-78
2022/05/21 09:08:21;;;;;;;3.05;1.00;;;;;;;19.11;45.35;100827.44;4975150;28;20085;-78
2022/05/21 09:11:01;;;;;;;4.45;0.90;;;;;;;19.05;45.83;100816.97;4994030;28;20038;-78
2022/05/21 09:13:48;;;;;;;3.72;1.13;;;;;;;19.12;44.41;100826.50;4990314;28;20038;-78
2022/05/21 09:19:03;;;;;;;4.30;1.55;;;;;;;19.17;44.32;100835.22;4974509;28;20027;-79
2022/05/21 09:21:32;;;;;;;5.03;1.10;;;;;;;19.31;44.33;100815.09;4992925;28;20041;-77
2022/05/21 09:24:03;;;;;;;2.97;1.00;;;;;;;19.79;43.52;100815.06;4989299;28;20037;-79
2022/05/21 09:26:49;;;;;;;4.33;1.20;;;;;;;19.75;43.04;100817.91;4989731;28;20489;-78
2022/05/21 09:29:26;;;;;;;4.55;1.23;;;;;;;19.54;43.01;100799.03;4975649;28;20041;-78
2022/05/21 09:31:54;;;;;;;4.38;0.95;;;;;;;19.56;44.23;100804.34;4974933;28;20046;-78
2022/05/21 09:34:28;;;;;;;3.30;0.98;;;;;;;19.54;43.99;100796.38;4992550;28;20625;-79
2022/05/21 09:36:54;;;;;;;8.90;1.33;;;;;;;19.66;43.43;100820.03;4990297;28;20042;-78
2022/05/21 09:39:40;;;;;;;4.93;1.13;;;;;;;19.61;43.05;100799.69;4993262;28;20117;-78
2022/05/21 09:45:22;;;;;;;4.68;0.80;;;;;;;19.94;42.46;100794.81;4972874;28;20038;-79
2022/05/21 09:47:49;;;;;;;3.50;0.98;;;;;;;19.63;42.23;100792.47;4990938;28;20035;-78
2022/05/21 09:50:23;;;;;;;6.85;1.25;;;;;;;19.37;42.65;100791.69;4993088;28;20042;-79
2022/05/21 09:52:50;;;;;;;5.03;0.82;;;;;;;19.17;42.84;100803.13;4972370;28;20038;-78
2022/05/21 09:55:27;;;;;;;4.38;1.08;;;;;;;19.69;42.58;100792.25;4975576;28;20062;-78
2022/05/21 09:57:54;;;;;;;2.67;1.10;;;;;;;20.09;41.89;100783.44;4993197;28;20041;-78
2022/05/21 10:00:26;;;;;;;4.13;0.88;;;;;;;20.09;41.57;100794.16;4989689;28;20038;-78
2022/05/21 10:02:57;;;;;;;4.22;0.88;;;;;;;19.81;42.15;100780.19;4992830;28;20076;-78
2022/05/21 10:05:38;;;;;;;5.97;1.37;;;;;;;19.78;42.45;100791.00;4975592;28;20556;-79
2022/05/21 10:11:25;;;;;;;3.38;0.93;;;;;;;20.24;41.38;100786.44;4992601;28;20038;-79
2022/05/21 10:14:06;;;;;;;3.90;1.20;;;;;;;20.21;40.99;100778.53;4992494;28;20053;-78
2022/05/21 10:17:07;;;;;;;2.95;1.10;;;;;;;19.90;41.24;100785.16;4973496;28;20038;-79
2022/05/21 10:20:06;;;;;;;5.50;1.30;;;;;;;19.77;42.39;100789.25;4914885;28;20046;-79
2022/05/21 10:22:59;;;;;;;3.10;1.58;;;;;;;19.80;42.93;100798.03;4989726;28;20030;-78
2022/05/21 10:25:36;;;;;;;5.68;1.73;;;;;;;20.07;43.44;100789.84;4972827;28;20157;-78
2022/05/21 10:28:16;;;;;;;6.10;1.30;;;;;;;20.12;42.26;100779.78;4992182;28;20507;-78
2022/05/21 10:31:00;;;;;;;4.70;1.20;;;;;;;20.50;40.83;100790.69;4992407;28;20038;-78
2022/05/21 10:33:49;;;;;;;5.57;1.20;;;;;;;20.51;40.48;100790.63;4990425;28;20046;-78
2022/05/21 10:36:36;;;;;;;3.75;1.30;;;;;;;20.24;42.31;100789.13;4990423;28;20100;-78
2022/05/21 10:39:13;;;;;;;7.18;1.80;;;;;;;20.65;41.97;100778.47;4970045;28;20027;-78
2022/05/21 10:42:03;;;;;;;6.68;1.85;;;;;;;20.71;41.71;100775.50;4992471;28;20038;-79
2022/05/21 10:45:06;;;;;;;5.20;1.98;;;;;;;20.79;42.09;100776.91;4992395;28;20034;-78
2022/05/21 10:48:22;;;;;;;3.83;1.63;;;;;;;20.89;42.11;100779.19;4989960;28;20038;-78
2022/05/21 10:50:58;;;;;;;3.35;1.60;;;;;;;21.25;41.01;100771.25;4953268;28;20057;-78
2022/05/21 10:53:51;;;;;;;5.60;1.60;;;;;;;21.01;41.61;100760.72;4974808;28;20077;-78
2022/05/21 10:56:43;;;;;;;5.15;2.08;;;;;;;20.87;41.79;100789.97;4988354;28;20077;-78
2022/05/21 10:59:18;;;;;;;;;;;;;;;20.72;42.72;100774.56;4989228;28;20038;-79
2022/05/21 11:01:59;;;;;;;7.53;1.73;;;;;;;20.91;42.39;100788.03;4992157;28;19914;-78
2022/05/21 11:04:45;;;;;;;5.03;1.30;;;;;;;21.31;41.51;100768.28;4972023;28;20401;-78
2022/05/21 11:07:39;;;;;;;4.35;1.73;;;;;;;21.21;40.11;100799.16;4989077;28;20514;-78
2022/05/21 11:10:18;;;;;;;6.60;1.20;;;;;;;21.01;40.75;100776.81;4957213;28;20522;-78
2022/05/21 11:12:59;;;;;;;5.15;1.50;;;;;;;20.81;41.55;100774.16;4974501;28;20141;-78
2022/05/21 11:15:30;;;;;;;4.72;1.20;;;;;;;21.06;41.75;100778.41;4995964;28;20042;-78
2022/05/21 11:18:05;;;;;;;2.78;1.17;;;;;;;21.05;40.60;100760.56;4992503;28;20053;-78
2022/05/21 11:20:35;;;;;;;5.15;1.33;;;;;;;21.02;41.33;100783.91;4996153;28;20428;-78
2022/05/21 11:23:10;;;;;;;4.22;1.25;;;;;;;20.83;41.83;100761.56;4978300;28;20042;-78
2022/05/21 11:25:43;;;;;;;3.08;1.00;;;;;;;20.11;42.96;100757.47;4991693;28;20046;-78
2022/05/21 11:28:44;;;;;;;3.45;1.50;;;;;;;20.02;44.02;100773.94;4996021;28;20038;-79
2022/05/21 11:31:13;;;;;;;4.28;1.48;;;;;;;19.92;44.52;100770.75;4967210;28;20045;-78
2022/05/21 11:39:15;;;;;;;5.60;1.50;;;;;;;19.86;44.84;100795.13;4992828;28;20038;-78
2022/05/21 11:41:53;;;;;;;3.47;1.38;;;;;;;19.66;44.85;100795.91;4977062;28;20035;-78
2022/05/21 11:47:13;;;;;;;4.90;1.80;;;;;;;20.38;43.30;100789.38;4995196;28;20061;-78
2022/05/21 11:49:44;;;;;;;3.53;1.55;;;;;;;21.27;42.78;100781.91;4995422;28;20488;-78
2022/05/21 11:52:28;;;;;;;5.55;1.50;;;;;;;21.40;41.10;100792.03;4995039;28;20042;-78
2022/05/21 11:54:53;;;;;;;4.25;1.95;;;;;;;21.93;40.66;100773.38;4989868;28;20062;-78
2022/05/21 11:57:38;;;;;;;4.45;1.40;;;;;;;21.73;40.41;100779.75;4995197;28;20042;-78
2022/05/21 12:00:15;;;;;;;6.30;1.50;;;;;;;21.32;41.14;100780.75;4993707;28;20074;-78
2022/05/21 12:02:58;;;;;;;4.22;1.70;;;;;;;20.74;41.38;100778.91;4974613;28;20038;-78
2022/05/21 12:05:37;;;;;;;6.57;1.20;;;;;;;20.42;42.38;100780.28;4994741;28;20126;-78
2022/05/21 12:08:13;;;;;;;3.00;1.30;;;;;;;19.94;43.38;100794.81;4995012;28;20038;-78
2022/05/21 12:11:23;;;;;;;4.63;1.30;;;;;;;19.59;44.68;100786.34;4989742;28;20500;-78
2022/05/21 12:14:04;;;;;;;4.03;1.40;;;;;;;19.46;46.06;100779.72;4974735;28;20417;-78
2022/05/21 12:16:29;;;;;;;4.32;1.55;;;;;;;19.48;44.95;100791.25;4992938;28;20042;-78